高雄國際航空站 - ATIS

METAR RCKH 251130Z VRB02KT 9999 FEW015 SCT040 BKN120 29/24 Q1007 NOSIG RMK A2975=

站台狀態:Online
最後更新:2022-09-25 19:30:01